Amboy, Indiana
Current Conditions -  °F | °C
As of 9:15 AM on Saturday 22 Nov 2014 (Local Time) from KOKK Reporting Station
Overcast Overcast  
Wind Chill: 32°   Ceiling: 4700
Heat Index: 39°   Visibility: 10mi
Dew Point: 34°   Wind: 13mph
Humidity: 81%   Direction: 200°SSW
Pressure: 30.14"   Gusts: NA
Location:  40.6°N, 85.93°W
Report Text: KOKK 221415Z AUTO 20011KT 10SM BKN047 BKN055 OVC075 04/01 A3014 RMK AO1
Loading
Personal Weather Stations






























Interactive Weather Map New forecast layout! Learn more

10-Day Weather Forecast

Advertisements
Track Severe Weather on mobile